createdAt,value
2017-02-17T00:00:17.824Z,0
2017-02-17T00:00:58.283Z,0
2017-02-17T00:01:38.802Z,0
2017-02-17T00:02:19.288Z,0
2017-02-17T00:02:59.802Z,0
2017-02-17T00:03:40.288Z,0
2017-02-17T00:04:20.833Z,0
2017-02-17T00:05:01.360Z,0
2017-02-17T00:05:41.887Z,0
2017-02-17T00:06:22.389Z,0
2017-02-17T00:07:02.839Z,0
2017-02-17T00:07:43.362Z,0
2017-02-17T00:08:23.898Z,0
2017-02-17T00:09:04.418Z,0
2017-02-17T00:09:44.898Z,0
2017-02-17T00:10:25.447Z,0
2017-02-17T00:11:05.911Z,0
2017-02-17T00:11:46.524Z,0
2017-02-17T00:12:27.030Z,0
2017-02-17T00:13:07.545Z,0
2017-02-17T00:13:48.061Z,0
2017-02-17T00:14:28.576Z,0
2017-02-17T00:15:09.103Z,0
2017-02-17T00:15:49.593Z,0
2017-02-17T00:16:30.078Z,0
2017-02-17T00:17:10.584Z,0
2017-02-17T00:17:51.112Z,0
2017-02-17T00:18:31.606Z,0
2017-02-17T00:19:12.120Z,0
2017-02-17T00:19:52.639Z,0
2017-02-17T00:20:33.168Z,0
2017-02-17T00:21:13.680Z,0
2017-02-17T00:21:54.227Z,0
2017-02-17T00:22:34.723Z,0
2017-02-17T00:23:15.212Z,0
2017-02-17T00:23:55.709Z,0
2017-02-17T00:24:36.230Z,0
2017-02-17T00:25:16.734Z,0
2017-02-17T00:25:57.214Z,0
2017-02-17T00:26:37.761Z,0
2017-02-17T00:27:18.225Z,0
2017-02-17T00:27:58.751Z,0
2017-02-17T00:28:39.303Z,0
2017-02-17T00:29:19.771Z,0
2017-02-17T00:30:00.301Z,0
2017-02-17T00:30:40.804Z,0
2017-02-17T00:31:21.324Z,0
2017-02-17T00:32:01.847Z,0
2017-02-17T00:32:42.417Z,0
2017-02-17T00:33:22.874Z,0
2017-02-17T00:34:03.428Z,0
2017-02-17T00:34:43.963Z,0
2017-02-17T00:35:24.441Z,0
2017-02-17T00:36:04.941Z,0
2017-02-17T00:36:45.452Z,0
2017-02-17T00:37:25.977Z,0
2017-02-17T00:38:06.502Z,0
2017-02-17T00:38:47.047Z,0
2017-02-17T00:39:27.572Z,0
2017-02-17T00:40:08.093Z,0
2017-02-17T00:40:48.612Z,0
2017-02-17T00:41:29.116Z,0
2017-02-17T00:42:09.625Z,0
2017-02-17T00:42:50.137Z,0
2017-02-17T00:43:30.628Z,0
2017-02-17T00:44:11.162Z,0
2017-02-17T00:44:51.662Z,0
2017-02-17T00:45:32.181Z,0
2017-02-17T00:46:12.692Z,0
2017-02-17T00:46:53.195Z,0
2017-02-17T00:47:33.686Z,0
2017-02-17T00:48:14.167Z,0
2017-02-17T00:48:54.694Z,0
2017-02-17T00:49:35.181Z,0
2017-02-17T00:50:15.671Z,0
2017-02-17T00:50:56.188Z,0
2017-02-17T00:51:36.753Z,0
2017-02-17T00:52:17.241Z,0
2017-02-17T00:52:57.753Z,0
2017-02-17T00:53:38.184Z,0
2017-02-17T00:54:18.739Z,0
2017-02-17T00:54:59.209Z,0
2017-02-17T00:55:39.727Z,0
2017-02-17T00:56:20.211Z,0
2017-02-17T00:57:00.708Z,0
2017-02-17T00:57:41.230Z,0
2017-02-17T00:58:21.666Z,0
2017-02-17T00:59:02.172Z,0
2017-02-17T00:59:42.701Z,0
2017-02-17T01:00:23.156Z,0
2017-02-17T01:01:03.635Z,0
2017-02-17T01:01:44.139Z,0
2017-02-17T01:02:24.623Z,0
2017-02-17T01:03:05.153Z,0
2017-02-17T01:03:45.657Z,0
2017-02-17T01:04:26.134Z,0
2017-02-17T01:05:06.597Z,0
2017-02-17T01:05:47.076Z,0
2017-02-17T01:06:27.589Z,0
2017-02-17T01:07:08.077Z,0
2017-02-17T01:07:48.563Z,0
2017-02-17T01:08:29.107Z,0
2017-02-17T01:09:09.635Z,0
2017-02-17T01:09:50.131Z,0
2017-02-17T01:10:30.585Z,0
2017-02-17T01:11:11.106Z,0
2017-02-17T01:11:51.592Z,0
2017-02-17T01:12:32.109Z,0
2017-02-17T01:13:12.594Z,0
2017-02-17T01:13:53.091Z,0
2017-02-17T01:14:33.617Z,0
2017-02-17T01:15:14.129Z,0
2017-02-17T01:15:54.673Z,0
2017-02-17T01:16:35.115Z,0
2017-02-17T01:17:15.662Z,0
2017-02-17T01:17:56.170Z,0
2017-02-17T01:18:36.614Z,0
2017-02-17T01:19:17.125Z,0
2017-02-17T01:19:57.635Z,0
2017-02-17T01:20:38.107Z,0
2017-02-17T01:21:18.617Z,0
2017-02-17T01:21:59.134Z,0
2017-02-17T01:22:39.648Z,0
2017-02-17T01:23:20.123Z,0
2017-02-17T01:24:00.665Z,0
2017-02-17T01:24:41.144Z,0
2017-02-17T01:25:21.588Z,0
2017-02-17T01:26:02.100Z,0
2017-02-17T01:26:42.624Z,0
2017-02-17T01:27:23.158Z,0
2017-02-17T01:28:03.623Z,0
2017-02-17T01:28:44.121Z,0
2017-02-17T01:29:24.633Z,0
2017-02-17T01:30:05.134Z,0
2017-02-17T01:30:45.677Z,0
2017-02-17T01:31:26.149Z,0
2017-02-17T01:32:06.658Z,0
2017-02-17T01:32:47.167Z,0
2017-02-17T01:33:27.713Z,0
2017-02-17T01:34:08.226Z,0
2017-02-17T01:34:49.022Z,0
2017-02-17T01:35:29.553Z,0
2017-02-17T01:36:10.052Z,0
2017-02-17T01:36:50.577Z,0
2017-02-17T01:37:31.049Z,0
2017-02-17T01:38:11.560Z,0
2017-02-17T01:38:52.078Z,0
2017-02-17T01:39:32.611Z,0
2017-02-17T01:40:13.093Z,0
2017-02-17T01:40:53.681Z,0
2017-02-17T01:41:34.213Z,0
2017-02-17T01:42:14.728Z,0
2017-02-17T01:42:55.248Z,0
2017-02-17T01:43:35.733Z,0
2017-02-17T01:44:16.232Z,0
2017-02-17T01:44:56.748Z,0
2017-02-17T01:45:37.247Z,0
2017-02-17T01:46:17.753Z,0
2017-02-17T01:46:58.264Z,0
2017-02-17T01:47:38.768Z,0
2017-02-17T01:48:19.298Z,0
2017-02-17T01:48:59.790Z,0
2017-02-17T01:49:40.281Z,0
2017-02-17T01:50:20.811Z,0
2017-02-17T01:51:01.301Z,0
2017-02-17T01:51:41.814Z,0
2017-02-17T01:52:22.315Z,0
2017-02-17T01:53:02.830Z,0
2017-02-17T01:53:43.351Z,0
2017-02-17T01:54:23.817Z,0
2017-02-17T01:55:04.340Z,0
2017-02-17T01:55:44.834Z,0
2017-02-17T01:56:25.356Z,0
2017-02-17T01:57:05.864Z,0
2017-02-17T01:57:46.351Z,0
2017-02-17T01:58:26.851Z,0
2017-02-17T01:59:07.358Z,0
2017-02-17T01:59:47.874Z,0
2017-02-17T02:00:28.398Z,0
2017-02-17T02:01:08.931Z,0
2017-02-17T02:01:49.445Z,0
2017-02-17T02:02:29.922Z,0
2017-02-17T02:03:10.444Z,0
2017-02-17T02:03:50.965Z,0
2017-02-17T02:04:31.463Z,0
2017-02-17T02:05:11.967Z,0
2017-02-17T02:05:52.494Z,0
2017-02-17T02:06:32.999Z,0
2017-02-17T02:07:13.537Z,0
2017-02-17T02:07:54.019Z,0
2017-02-17T02:08:34.528Z,0
2017-02-17T02:09:15.040Z,0
2017-02-17T02:09:55.559Z,0
2017-02-17T02:10:36.074Z,0
2017-02-17T02:11:16.555Z,0
2017-02-17T02:11:57.057Z,0
2017-02-17T02:12:37.573Z,0
2017-02-17T02:13:18.072Z,0
2017-02-17T02:13:58.590Z,0
2017-02-17T02:14:39.081Z,0
2017-02-17T02:15:19.608Z,0
2017-02-17T02:16:00.134Z,0
2017-02-17T02:16:40.619Z,0
2017-02-17T02:17:21.131Z,0
2017-02-17T02:18:01.647Z,0
2017-02-17T02:18:42.146Z,0
2017-02-17T02:19:22.682Z,0
2017-02-17T02:20:03.135Z,0
2017-02-17T02:20:43.651Z,0
2017-02-17T02:21:24.124Z,0
2017-02-17T02:22:04.626Z,0
2017-02-17T02:22:45.142Z,0
2017-02-17T02:23:25.671Z,0
2017-02-17T02:24:06.173Z,0
2017-02-17T02:24:46.671Z,0
2017-02-17T02:25:27.177Z,0
2017-02-17T02:26:07.694Z,0
2017-02-17T02:26:48.199Z,0
2017-02-17T02:27:28.710Z,0
2017-02-17T02:28:09.228Z,0
2017-02-17T02:28:49.741Z,0
2017-02-17T02:29:30.261Z,0
2017-02-17T02:30:10.746Z,0
2017-02-17T02:30:51.250Z,0
2017-02-17T02:31:31.760Z,0
2017-02-17T02:32:12.239Z,0
2017-02-17T02:32:52.754Z,0
2017-02-17T02:33:33.265Z,0
2017-02-17T02:34:13.777Z,0
2017-02-17T02:34:54.271Z,0
2017-02-17T02:35:34.787Z,0
2017-02-17T02:36:15.295Z,0
2017-02-17T02:36:55.840Z,0
2017-02-17T02:37:36.298Z,0
2017-02-17T02:38:16.833Z,0
2017-02-17T02:38:57.278Z,0
2017-02-17T02:39:37.795Z,0
2017-02-17T02:40:18.305Z,0
2017-02-17T02:40:58.785Z,0
2017-02-17T02:41:39.301Z,0
2017-02-17T02:42:19.814Z,0
2017-02-17T02:43:00.335Z,0
2017-02-17T02:43:40.845Z,0
2017-02-17T02:44:22.074Z,0
2017-02-17T02:45:02.535Z,0
2017-02-17T02:45:43.039Z,0
2017-02-17T02:46:23.613Z,0
2017-02-17T02:47:04.123Z,0
2017-02-17T02:47:44.632Z,0
2017-02-17T02:48:25.111Z,0
2017-02-17T02:49:05.620Z,0
2017-02-17T02:49:46.139Z,0
2017-02-17T02:50:26.637Z,0
2017-02-17T02:51:07.150Z,0
2017-02-17T02:51:47.628Z,0
2017-02-17T02:52:28.140Z,0
2017-02-17T02:53:08.646Z,0
2017-02-17T02:53:49.152Z,0
2017-02-17T02:54:29.677Z,0
2017-02-17T02:55:10.194Z,0
2017-02-17T02:55:50.724Z,0
2017-02-17T02:56:31.194Z,0
2017-02-17T02:57:11.674Z,0
2017-02-17T02:57:52.170Z,0
2017-02-17T02:58:32.683Z,0
2017-02-17T02:59:13.205Z,0
2017-02-17T02:59:53.709Z,0
2017-02-17T03:00:34.244Z,0
2017-02-17T03:01:14.722Z,0
2017-02-17T03:01:55.255Z,0
2017-02-17T03:02:35.760Z,0
2017-02-17T03:03:16.281Z,0
2017-02-17T03:03:56.805Z,0
2017-02-17T03:04:37.321Z,0
2017-02-17T03:05:17.798Z,0
2017-02-17T03:05:58.303Z,0
2017-02-17T03:06:38.848Z,0
2017-02-17T03:07:19.315Z,0
2017-02-17T03:07:59.837Z,0
2017-02-17T03:08:40.361Z,0
2017-02-17T03:09:20.888Z,0
2017-02-17T03:10:01.379Z,0
2017-02-17T03:10:41.846Z,0
2017-02-17T03:11:22.358Z,0
2017-02-17T03:12:02.896Z,0
2017-02-17T03:12:43.373Z,0
2017-02-17T03:13:23.909Z,0
2017-02-17T03:14:04.421Z,0
2017-02-17T03:14:44.943Z,0
2017-02-17T03:15:25.455Z,0
2017-02-17T03:16:05.965Z,0
2017-02-17T03:16:46.468Z,0
2017-02-17T03:17:27.008Z,0
2017-02-17T03:18:07.506Z,0
2017-02-17T03:18:48.010Z,0
2017-02-17T03:19:28.520Z,0
2017-02-17T03:20:09.093Z,0
2017-02-17T03:20:49.589Z,0
2017-02-17T03:21:30.116Z,0
2017-02-17T03:22:10.583Z,0
2017-02-17T03:22:51.085Z,0
2017-02-17T03:23:31.596Z,0
2017-02-17T03:24:12.118Z,0
2017-02-17T03:24:52.611Z,0
2017-02-17T03:25:33.134Z,0
2017-02-17T03:26:13.617Z,0
2017-02-17T03:26:54.105Z,0
2017-02-17T03:27:34.648Z,0
2017-02-17T03:28:15.137Z,0
2017-02-17T03:28:55.799Z,0
2017-02-17T03:29:36.322Z,0
2017-02-17T03:30:16.839Z,0
2017-02-17T03:30:57.342Z,0
2017-02-17T03:31:37.853Z,0
2017-02-17T03:32:18.351Z,0
2017-02-17T03:32:58.863Z,0
2017-02-17T03:33:39.379Z,0
2017-02-17T03:34:19.878Z,0
2017-02-17T03:35:00.394Z,0
2017-02-17T03:35:40.919Z,0
2017-02-17T03:36:21.430Z,0
2017-02-17T03:37:01.959Z,0
2017-02-17T03:37:42.446Z,0
2017-02-17T03:38:22.942Z,0
2017-02-17T03:39:03.453Z,0
2017-02-17T03:39:43.986Z,0
2017-02-17T03:40:24.473Z,0
2017-02-17T03:41:04.983Z,0
2017-02-17T03:41:45.498Z,0
2017-02-17T03:42:26.012Z,0
2017-02-17T03:43:06.515Z,0
2017-02-17T03:43:47.002Z,0
2017-02-17T03:44:27.508Z,0
2017-02-17T03:45:08.011Z,0
2017-02-17T03:45:48.527Z,0
2017-02-17T03:46:29.038Z,0
2017-02-17T03:47:09.538Z,0
2017-02-17T03:47:50.026Z,0
2017-02-17T03:48:30.553Z,0
2017-02-17T03:49:11.042Z,0
2017-02-17T03:49:51.551Z,0
2017-02-17T03:50:32.063Z,0
2017-02-17T03:51:12.569Z,0
2017-02-17T03:51:53.097Z,0
2017-02-17T03:52:33.601Z,0
2017-02-17T03:53:14.107Z,0
2017-02-17T03:53:54.604Z,0
2017-02-17T03:54:35.217Z,0
2017-02-17T03:55:15.675Z,0
2017-02-17T03:55:56.215Z,0
2017-02-17T03:56:36.703Z,0
2017-02-17T03:57:17.215Z,0
2017-02-17T03:57:57.695Z,0
2017-02-17T03:58:38.187Z,0
2017-02-17T03:59:18.739Z,0
2017-02-17T03:59:59.199Z,0
2017-02-17T04:00:39.744Z,0
2017-02-17T04:01:20.220Z,0
2017-02-17T04:02:00.730Z,0
2017-02-17T04:02:41.246Z,0
2017-02-17T04:03:21.788Z,0
2017-02-17T04:04:02.285Z,0
2017-02-17T04:04:42.777Z,0
2017-02-17T04:05:23.298Z,0
2017-02-17T04:06:03.827Z,0
2017-02-17T04:06:44.310Z,0
2017-02-17T04:07:24.823Z,0
2017-02-17T04:08:05.349Z,0
2017-02-17T04:08:45.845Z,0
2017-02-17T04:09:26.427Z,0
2017-02-17T04:10:06.956Z,0
2017-02-17T04:10:47.451Z,0
2017-02-17T04:11:27.955Z,0
2017-02-17T04:12:08.469Z,0
2017-02-17T04:12:48.991Z,0
2017-02-17T04:13:29.500Z,0
2017-02-17T04:14:10.016Z,0
2017-02-17T04:14:50.538Z,0
2017-02-17T04:15:31.010Z,0
2017-02-17T04:16:11.538Z,0
2017-02-17T04:16:52.027Z,0
2017-02-17T04:17:32.488Z,0
2017-02-17T04:18:12.990Z,0
2017-02-17T04:18:53.488Z,0
2017-02-17T04:19:34.032Z,0
2017-02-17T04:20:14.506Z,0
2017-02-17T04:20:55.039Z,0
2017-02-17T04:21:35.493Z,0
2017-02-17T04:22:16.013Z,0
2017-02-17T04:22:56.536Z,0
2017-02-17T04:23:37.066Z,0
2017-02-17T04:24:17.554Z,0
2017-02-17T04:24:58.075Z,0
2017-02-17T04:25:38.550Z,0
2017-02-17T04:26:19.042Z,0
2017-02-17T04:26:59.551Z,0
2017-02-17T04:27:40.088Z,0
2017-02-17T04:28:20.599Z,0
2017-02-17T04:29:01.191Z,0
2017-02-17T04:29:41.707Z,0
2017-02-17T04:30:22.225Z,0
2017-02-17T04:31:02.742Z,0
2017-02-17T04:31:43.243Z,0
2017-02-17T04:32:23.748Z,0
2017-02-17T04:33:04.237Z,0
2017-02-17T04:33:44.718Z,0
2017-02-17T04:34:25.221Z,0
2017-02-17T04:35:05.725Z,0
2017-02-17T04:35:46.242Z,0
2017-02-17T04:36:26.724Z,0
2017-02-17T04:37:07.242Z,0
2017-02-17T04:37:47.770Z,0
2017-02-17T04:38:28.253Z,0
2017-02-17T04:39:08.764Z,0
2017-02-17T04:39:49.258Z,0
2017-02-17T04:40:29.748Z,0
2017-02-17T04:41:10.243Z,0
2017-02-17T04:41:50.758Z,0
2017-02-17T04:42:31.283Z,0
2017-02-17T04:43:11.802Z,0
2017-02-17T04:43:52.307Z,0
2017-02-17T04:44:32.844Z,0
2017-02-17T04:45:13.341Z,0
2017-02-17T04:45:53.859Z,0
2017-02-17T04:46:34.377Z,0
2017-02-17T04:47:14.901Z,0
2017-02-17T04:47:55.381Z,0
2017-02-17T04:48:35.979Z,0
2017-02-17T04:49:16.497Z,0
2017-02-17T04:49:56.987Z,0
2017-02-17T04:50:37.467Z,0
2017-02-17T04:51:17.975Z,0
2017-02-17T04:51:58.495Z,0
2017-02-17T04:52:38.992Z,0
2017-02-17T04:53:19.496Z,0
2017-02-17T04:54:00.012Z,0
2017-02-17T04:54:40.511Z,0
2017-02-17T04:55:21.030Z,0
2017-02-17T04:56:01.547Z,0
2017-02-17T04:56:42.006Z,0
2017-02-17T04:57:22.525Z,0
2017-02-17T04:58:03.047Z,0
2017-02-17T04:58:43.539Z,0
2017-02-17T04:59:24.089Z,0
2017-02-17T05:00:04.556Z,0
2017-02-17T05:00:45.059Z,0
2017-02-17T05:01:25.564Z,0
2017-02-17T05:02:06.079Z,0
2017-02-17T05:02:46.588Z,0
2017-02-17T05:03:27.110Z,0
2017-02-17T05:04:07.605Z,0
2017-02-17T05:04:48.119Z,0
2017-02-17T05:05:28.637Z,0
2017-02-17T05:06:09.143Z,0
2017-02-17T05:06:49.652Z,0
2017-02-17T05:07:30.151Z,0
2017-02-17T05:08:10.703Z,0
2017-02-17T05:08:51.200Z,0
2017-02-17T05:09:31.690Z,0
2017-02-17T05:10:12.213Z,0
2017-02-17T05:10:52.717Z,0
2017-02-17T05:11:33.236Z,0
2017-02-17T05:12:13.719Z,0
2017-02-17T05:12:54.239Z,0
2017-02-17T05:13:34.735Z,0
2017-02-17T05:14:15.242Z,0
2017-02-17T05:14:55.752Z,0
2017-02-17T05:15:36.236Z,0
2017-02-17T05:16:16.733Z,0
2017-02-17T05:16:57.239Z,0
2017-02-17T05:17:37.753Z,0
2017-02-17T05:18:18.282Z,0
2017-02-17T05:18:58.762Z,0
2017-02-17T05:19:39.284Z,0
2017-02-17T05:20:19.759Z,0
2017-02-17T05:21:00.283Z,0
2017-02-17T05:21:40.796Z,0
2017-02-17T05:22:21.307Z,0
2017-02-17T05:23:01.791Z,0
2017-02-17T05:23:42.289Z,0
2017-02-17T05:24:22.772Z,0
2017-02-17T05:25:03.273Z,0
2017-02-17T05:25:43.895Z,0
2017-02-17T05:26:24.407Z,0
2017-02-17T05:27:04.897Z,0
2017-02-17T05:27:45.525Z,0
2017-02-17T05:28:25.975Z,0
2017-02-17T05:29:06.454Z,0
2017-02-17T05:29:46.988Z,0
2017-02-17T05:30:27.544Z,0
2017-02-17T05:31:08.012Z,0
2017-02-17T05:31:48.516Z,0
2017-02-17T05:32:29.044Z,0
2017-02-17T05:33:09.558Z,0
2017-02-17T05:33:50.035Z,0
2017-02-17T05:34:30.539Z,0
2017-02-17T05:35:11.049Z,0
2017-02-17T05:35:51.574Z,0
2017-02-17T05:36:32.063Z,0
2017-02-17T05:37:12.584Z,0
2017-02-17T05:37:53.053Z,0
2017-02-17T05:38:33.561Z,0
2017-02-17T05:39:14.069Z,0
2017-02-17T05:39:54.581Z,0
2017-02-17T05:40:35.098Z,0
2017-02-17T05:41:15.572Z,0
2017-02-17T05:41:56.092Z,0
2017-02-17T05:42:36.573Z,0
2017-02-17T05:43:17.087Z,0
2017-02-17T05:43:57.576Z,0
2017-02-17T05:44:38.089Z,0
2017-02-17T05:45:18.624Z,0
2017-02-17T05:45:59.112Z,0
2017-02-17T05:46:39.821Z,0
2017-02-17T05:47:20.322Z,0
2017-02-17T05:48:00.822Z,0
2017-02-17T05:48:41.313Z,0
2017-02-17T05:49:21.820Z,0
2017-02-17T05:50:02.324Z,0
2017-02-17T05:50:42.833Z,0
2017-02-17T05:51:23.295Z,0
2017-02-17T05:52:03.806Z,0
2017-02-17T05:52:44.361Z,0
2017-02-17T05:53:24.813Z,0
2017-02-17T05:54:05.334Z,0
2017-02-17T05:54:45.841Z,0
2017-02-17T05:55:26.345Z,0
2017-02-17T05:56:06.847Z,0
2017-02-17T05:56:47.427Z,0
2017-02-17T05:57:28.598Z,0
2017-02-17T05:58:09.119Z,0
2017-02-17T05:58:49.585Z,0
2017-02-17T05:59:30.234Z,0
2017-02-17T06:00:10.708Z,0
2017-02-17T06:00:51.210Z,0
2017-02-17T06:01:31.702Z,0
2017-02-17T06:02:12.232Z,0
2017-02-17T06:02:52.745Z,0
2017-02-17T06:03:33.245Z,0
2017-02-17T06:04:13.708Z,0
2017-02-17T06:04:54.464Z,0
2017-02-17T06:05:34.949Z,0
2017-02-17T06:06:15.471Z,0
2017-02-17T06:06:55.917Z,0
2017-02-17T06:07:36.450Z,0
2017-02-17T06:08:16.991Z,0
2017-02-17T06:08:57.530Z,0
2017-02-17T06:09:38.037Z,0
2017-02-17T06:10:18.750Z,0
2017-02-17T06:10:59.260Z,0
2017-02-17T06:11:39.758Z,0
2017-02-17T06:12:20.368Z,0
2017-02-17T06:13:00.854Z,0
2017-02-17T06:13:41.396Z,0
2017-02-17T06:14:22.412Z,0
2017-02-17T06:15:02.891Z,0
2017-02-17T06:15:43.468Z,0
2017-02-17T06:16:24.131Z,0
2017-02-17T06:17:04.609Z,0
2017-02-17T06:17:45.110Z,0
2017-02-17T06:18:25.654Z,0
2017-02-17T06:19:06.145Z,0
2017-02-17T06:19:46.694Z,0
2017-02-17T06:20:27.249Z,0
2017-02-17T06:21:07.739Z,0
2017-02-17T06:21:48.218Z,0
2017-02-17T06:22:28.706Z,0
2017-02-17T06:23:12.595Z,0
2017-02-17T06:23:52.599Z,0
2017-02-17T06:24:32.523Z,0
2017-02-17T06:25:13.970Z,0
2017-02-17T06:25:54.427Z,0
2017-02-17T06:26:35.082Z,0
2017-02-17T06:27:15.598Z,0
2017-02-17T06:27:56.093Z,0
2017-02-17T06:28:36.620Z,0
2017-02-17T06:29:17.154Z,0
2017-02-17T06:29:57.658Z,0
2017-02-17T06:30:38.187Z,0
2017-02-17T06:31:18.695Z,0
2017-02-17T06:31:59.152Z,0
2017-02-17T06:32:39.689Z,0
2017-02-17T06:33:20.355Z,0
2017-02-17T06:34:00.951Z,0
2017-02-17T06:34:41.698Z,0
2017-02-17T06:35:22.292Z,0
2017-02-17T06:36:02.760Z,0
2017-02-17T06:36:43.316Z,0
2017-02-17T06:37:23.833Z,0
2017-02-17T06:38:04.361Z,0
2017-02-17T06:38:45.149Z,0
2017-02-17T06:39:25.698Z,0
2017-02-17T06:40:06.291Z,0
2017-02-17T06:40:46.680Z,0
2017-02-17T06:41:27.228Z,0
2017-02-17T06:42:07.712Z,0
2017-02-17T06:42:48.320Z,0
2017-02-17T06:43:28.846Z,0
2017-02-17T06:44:09.682Z,0
2017-02-17T06:44:50.107Z,0
2017-02-17T06:45:30.883Z,0
2017-02-17T06:46:11.423Z,0
2017-02-17T06:46:51.848Z,0
2017-02-17T06:47:34.198Z,0
2017-02-17T06:48:13.763Z,0
2017-02-17T06:48:54.381Z,0
2017-02-17T06:49:35.364Z,0
2017-02-17T06:50:16.433Z,0
2017-02-17T06:51:01.898Z,0
2017-02-17T06:54:42.432Z,0
2017-02-17T06:55:24.832Z,0
2017-02-17T06:56:05.262Z,0
2017-02-17T06:56:49.519Z,0
2017-02-17T06:57:31.419Z,5
2017-02-17T06:58:12.495Z,5
2017-02-17T06:58:53.298Z,5
2017-02-17T06:59:33.700Z,5
2017-02-17T07:00:14.399Z,5
2017-02-17T07:00:54.922Z,5
2017-02-17T07:01:35.426Z,5
2017-02-17T07:02:16.156Z,5
2017-02-17T07:02:57.095Z,5
2017-02-17T07:03:37.530Z,5
2017-02-17T07:04:18.039Z,5
2017-02-17T07:04:58.566Z,10
2017-02-17T07:05:39.131Z,10
2017-02-17T07:06:20.267Z,10
2017-02-17T07:07:04.812Z,10
2017-02-17T07:07:45.376Z,10
2017-02-17T07:08:25.959Z,10
2017-02-17T07:09:07.891Z,15
2017-02-17T07:09:51.343Z,15
2017-02-17T07:15:49.175Z,20
2017-02-17T07:16:32.379Z,20
2017-02-17T07:17:13.138Z,20
2017-02-17T07:17:53.936Z,20
2017-02-17T07:18:35.214Z,20
2017-02-17T07:19:15.639Z,20
2017-02-17T07:19:56.161Z,20
2017-02-17T07:20:36.778Z,20
2017-02-17T07:21:17.215Z,25
2017-02-17T07:21:58.117Z,25
2017-02-17T07:22:38.624Z,25
2017-02-17T07:23:19.104Z,25
2017-02-17T07:23:59.579Z,25
2017-02-17T07:24:40.993Z,25
2017-02-17T07:25:23.329Z,25
2017-02-17T07:26:07.921Z,25
2017-02-17T07:26:47.727Z,25
2017-02-17T07:27:28.233Z,25
2017-02-17T07:28:08.753Z,25
2017-02-17T07:28:49.223Z,25
2017-02-17T07:29:29.763Z,25
2017-02-17T07:30:10.259Z,25
2017-02-17T07:30:50.785Z,25
2017-02-17T07:31:31.236Z,25
2017-02-17T07:32:11.742Z,25
2017-02-17T07:32:54.249Z,25
2017-02-17T07:33:35.825Z,25
2017-02-17T07:34:16.943Z,25
2017-02-17T07:34:58.280Z,25
2017-02-17T07:35:41.331Z,25
2017-02-17T07:36:21.172Z,25
2017-02-17T07:37:01.628Z,25
2017-02-17T07:37:42.144Z,25
2017-02-17T07:38:25.083Z,25
2017-02-17T07:39:05.561Z,25
2017-02-17T07:39:47.487Z,25
2017-02-17T07:40:26.784Z,25
2017-02-17T07:41:07.234Z,25
2017-02-17T07:41:47.763Z,25
2017-02-17T07:42:28.302Z,30
2017-02-17T07:43:08.843Z,30
2017-02-17T07:43:49.305Z,30
2017-02-17T07:44:29.762Z,30
2017-02-17T07:45:10.308Z,30
2017-02-17T07:45:50.807Z,30
2017-02-17T07:46:31.277Z,30
2017-02-17T07:47:11.793Z,30
2017-02-17T07:47:52.302Z,30
2017-02-17T07:48:32.780Z,30
2017-02-17T07:49:13.325Z,30
2017-02-17T07:49:53.831Z,30
2017-02-17T07:50:34.400Z,30
2017-02-17T07:51:14.908Z,30
2017-02-17T07:51:55.386Z,30
2017-02-17T07:52:35.884Z,30
2017-02-17T07:53:16.553Z,30
2017-02-17T07:53:57.449Z,30
2017-02-17T07:54:38.449Z,30
2017-02-17T07:55:19.265Z,30
2017-02-17T07:55:59.658Z,35
2017-02-17T07:56:40.951Z,35
2017-02-17T07:57:20.925Z,35
2017-02-17T07:58:01.585Z,35
2017-02-17T07:58:42.348Z,35
2017-02-17T07:59:22.901Z,35
2017-02-17T08:00:03.644Z,35
2017-02-17T08:00:44.498Z,35
2017-02-17T08:01:24.843Z,35
2017-02-17T08:02:05.482Z,35
2017-02-17T08:02:46.060Z,35
2017-02-17T08:03:26.430Z,35
2017-02-17T08:04:06.885Z,35
2017-02-17T08:04:47.402Z,40
2017-02-17T08:05:27.852Z,40
2017-02-17T08:06:08.397Z,40
2017-02-17T08:06:48.884Z,40
2017-02-17T08:07:29.767Z,45
2017-02-17T08:08:10.372Z,45
2017-02-17T08:08:50.812Z,45
2017-02-17T08:09:31.340Z,45
2017-02-17T08:10:11.807Z,50
2017-02-17T08:10:52.276Z,50
2017-02-17T08:11:32.753Z,50
2017-02-17T08:12:13.312Z,55
2017-02-17T08:12:53.835Z,55
2017-02-17T08:13:34.384Z,55
2017-02-17T08:14:14.986Z,60
2017-02-17T08:14:55.294Z,60
2017-02-17T08:15:35.792Z,60
2017-02-17T08:16:16.343Z,60
2017-02-17T08:16:56.781Z,65
2017-02-17T08:17:37.302Z,65
2017-02-17T08:18:17.780Z,65
2017-02-17T08:18:58.274Z,65
2017-02-17T08:19:38.785Z,65
2017-02-17T08:20:19.329Z,65
2017-02-17T08:20:59.737Z,65
2017-02-17T08:21:40.260Z,65
2017-02-17T08:22:20.777Z,65
2017-02-17T08:23:01.259Z,65
2017-02-17T08:23:41.738Z,65
2017-02-17T08:24:22.258Z,65
2017-02-17T08:25:02.746Z,65
2017-02-17T08:25:43.272Z,70
2017-02-17T08:26:23.790Z,70
2017-02-17T08:27:04.280Z,70
2017-02-17T08:27:44.803Z,70
2017-02-17T08:28:25.408Z,70
2017-02-17T08:29:05.909Z,70
2017-02-17T08:29:46.405Z,70
2017-02-17T08:30:26.904Z,70
2017-02-17T08:31:07.362Z,70
2017-02-17T08:31:47.884Z,70
2017-02-17T08:32:28.376Z,70
2017-02-17T08:33:08.863Z,70
2017-02-17T08:33:49.457Z,75
2017-02-17T08:36:28.893Z,75
2017-02-17T08:37:09.563Z,75
2017-02-17T08:37:49.998Z,80
2017-02-17T08:38:30.463Z,80
2017-02-17T08:39:11.079Z,80
2017-02-17T08:39:51.601Z,80
2017-02-17T08:40:32.088Z,85
2017-02-17T08:41:12.585Z,85
2017-02-17T08:41:53.136Z,90
2017-02-17T08:42:33.586Z,85
2017-02-17T08:43:14.128Z,90
2017-02-17T08:43:54.562Z,85
2017-02-17T08:44:35.180Z,85
2017-02-17T08:45:15.701Z,85
2017-02-17T08:45:56.224Z,90
2017-02-17T08:46:37.592Z,85
2017-02-17T08:47:17.158Z,85
2017-02-17T08:47:57.671Z,85
2017-02-17T08:48:38.341Z,80
2017-02-17T08:49:18.831Z,75
2017-02-17T08:49:59.298Z,75
2017-02-17T08:50:39.820Z,70
2017-02-17T08:51:20.252Z,70
2017-02-17T08:52:00.816Z,70
2017-02-17T08:52:41.284Z,70
2017-02-17T08:53:21.829Z,70
2017-02-17T08:54:02.415Z,70
2017-02-17T08:54:42.835Z,70
2017-02-17T08:55:23.299Z,70
2017-02-17T08:56:03.799Z,70
2017-02-17T08:56:44.280Z,70
2017-02-17T08:57:24.807Z,70
2017-02-17T08:58:05.366Z,70
2017-02-17T08:58:45.819Z,70
2017-02-17T08:59:26.399Z,75
2017-02-17T09:00:07.022Z,75
2017-02-17T09:00:47.571Z,80
2017-02-17T09:01:28.117Z,80
2017-02-17T09:02:08.611Z,80
2017-02-17T09:02:49.131Z,80
2017-02-17T09:03:29.653Z,80
2017-02-17T09:04:10.137Z,80
2017-02-17T09:04:50.648Z,80
2017-02-17T09:05:31.095Z,80
2017-02-17T09:06:11.595Z,80
2017-02-17T09:06:52.049Z,80
2017-02-17T09:07:32.602Z,80
2017-02-17T09:08:13.152Z,80
2017-02-17T09:08:53.561Z,80
2017-02-17T09:09:34.101Z,80
2017-02-17T09:10:14.588Z,80
2017-02-17T09:10:55.065Z,80
2017-02-17T09:11:35.524Z,80
2017-02-17T09:12:16.062Z,85
2017-02-17T09:12:56.592Z,85
2017-02-17T09:13:37.067Z,90
2017-02-17T09:14:17.551Z,90
2017-02-17T09:14:58.042Z,90
2017-02-17T09:15:38.585Z,95
2017-02-17T09:16:19.042Z,95
2017-02-17T09:16:59.583Z,95
2017-02-17T09:17:40.000Z,95
2017-02-17T09:18:20.502Z,95
2017-02-17T09:19:01.116Z,95
2017-02-17T09:19:41.599Z,95
2017-02-17T09:20:22.157Z,95
2017-02-17T09:21:02.695Z,100
2017-02-17T09:21:43.158Z,95
2017-02-17T09:22:23.801Z,95
2017-02-17T09:23:04.201Z,95
2017-02-17T09:23:44.683Z,95
2017-02-17T09:24:25.274Z,95
2017-02-17T09:25:05.846Z,90
2017-02-17T09:25:46.343Z,90
2017-02-17T09:26:26.859Z,90
2017-02-17T09:27:07.348Z,90
2017-02-17T09:27:47.811Z,85
2017-02-17T09:28:28.340Z,85
2017-02-17T09:29:08.925Z,85
2017-02-17T09:29:49.452Z,85
2017-02-17T09:30:29.951Z,85
2017-02-17T09:31:10.420Z,85
2017-02-17T09:31:50.975Z,85
2017-02-17T09:32:31.401Z,85
2017-02-17T09:33:11.921Z,90
2017-02-17T09:33:52.394Z,95
2017-02-17T09:34:32.872Z,90
2017-02-17T09:35:13.405Z,90
2017-02-17T09:35:53.881Z,95
2017-02-17T09:36:34.441Z,95
2017-02-17T09:37:14.840Z,100
2017-02-17T09:37:55.300Z,105
2017-02-17T09:38:35.805Z,110
2017-02-17T09:39:16.328Z,115
2017-02-17T09:39:56.813Z,120
2017-02-17T09:40:37.486Z,120
2017-02-17T09:41:17.877Z,130
2017-02-17T09:41:58.389Z,125
2017-02-17T09:42:39.294Z,125
2017-02-17T09:43:19.659Z,125
2017-02-17T09:44:00.112Z,125
2017-02-17T09:44:40.597Z,120
2017-02-17T09:45:21.111Z,125
2017-02-17T09:46:01.607Z,130
2017-02-17T09:46:42.563Z,135
2017-02-17T09:47:23.004Z,125
2017-02-17T09:48:03.531Z,125
2017-02-17T09:48:43.964Z,120
2017-02-17T09:49:24.559Z,115
2017-02-17T09:50:05.053Z,110
2017-02-17T09:50:45.540Z,110
2017-02-17T09:51:25.993Z,105
2017-02-17T09:52:06.478Z,100
2017-02-17T09:52:47.316Z,100
2017-02-17T09:53:27.768Z,95
2017-02-17T09:54:08.254Z,90
2017-02-17T09:54:48.796Z,90
2017-02-17T09:55:29.228Z,85
2017-02-17T09:56:10.222Z,90
2017-02-17T09:56:50.675Z,90
2017-02-17T09:57:31.163Z,90
2017-02-17T09:58:11.687Z,90
2017-02-17T09:58:52.154Z,90
2017-02-17T09:59:32.650Z,100
2017-02-17T10:00:13.134Z,115
2017-02-17T10:00:53.643Z,120
2017-02-17T10:01:34.176Z,120
2017-02-17T10:02:14.616Z,120
2017-02-17T10:02:55.173Z,115